Time;durP1;ratioP1;P1;durP2;ratioP2;P2;SDS_P1;SDS_P2;PMS_P1;PMS_P2;Temp;Humidity;BMP_temperature;BMP_pressure;BME280_temperature;BME280_humidity;BME280_pressure;Samples;Min_cycle;Max_cycle;Signal;HPM_P1;HPM_P2
2023/12/06 00:00:03;;;;;;;41.85;24.95;;;;;;;;;;5143686;27;20055;-76
2023/12/06 00:02:29;;;;;;;40.10;23.15;;;;;;;;;;5144680;27;20047;-76
2023/12/06 00:04:56;;;;;;;42.20;24.95;;;;;;;;;;5143710;27;20484;-76
2023/12/06 00:07:23;;;;;;;37.45;21.80;;;;;;;;;;5141874;27;20098;-76
2023/12/06 00:09:50;;;;;;;47.10;24.48;;;;;;;;;;5144739;27;20509;-75
2023/12/06 00:12:16;;;;;;;44.03;23.48;;;;;;;;;;5144056;27;20047;-76
2023/12/06 00:14:42;;;;;;;45.25;23.98;;;;;;;;;;5143517;27;20050;-75
2023/12/06 00:17:09;;;;;;;42.70;24.98;;;;;;;;;;5143525;27;20519;-75
2023/12/06 00:19:35;;;;;;;43.20;23.17;;;;;;;;;;5143972;27;20155;-76
2023/12/06 00:22:02;;;;;;;48.30;26.20;;;;;;;;;;5145057;27;20039;-76
2023/12/06 00:24:28;;;;;;;42.78;23.75;;;;;;;;;;5143430;27;20066;-74
2023/12/06 00:26:55;;;;;;;48.05;25.02;;;;;;;;;;5144517;27;20155;-74
2023/12/06 00:29:21;;;;;;;49.03;26.30;;;;;;;;;;5144781;27;20116;-75
2023/12/06 00:31:48;;;;;;;43.95;24.83;;;;;;;;;;5146447;27;20502;-76
2023/12/06 00:34:15;;;;;;;40.55;24.52;;;;;;;;;;5144008;27;20146;-74
2023/12/06 00:36:41;;;;;;;38.22;22.83;;;;;;;;;;5142904;27;20521;-76
2023/12/06 00:39:08;;;;;;;41.25;23.73;;;;;;;;;;5141930;27;20055;-76
2023/12/06 00:41:34;;;;;;;45.42;25.33;;;;;;;;;;5134541;27;20055;-75
2023/12/06 00:44:03;;;;;;;39.53;24.55;;;;;;;;;;5143192;27;20047;-74
2023/12/06 00:46:30;;;;;;;43.67;24.67;;;;;;;;;;5143502;27;20055;-74
2023/12/06 00:48:58;;;;;;;43.55;23.90;;;;;;;;;;5142258;27;20047;-75
2023/12/06 00:51:25;;;;;;;42.28;24.45;;;;;;;;;;5142958;27;20164;-75
2023/12/06 00:53:52;;;;;;;40.78;23.05;;;;;;;;;;5143784;27;20059;-74
2023/12/06 00:56:18;;;;;;;40.13;23.63;;;;;;;;;;5143321;27;20051;-74
2023/12/06 00:58:44;;;;;;;45.78;25.02;;;;;;;;;;5142881;27;20062;-76
2023/12/06 01:01:12;;;;;;;42.50;24.83;;;;;;;;;;5144197;27;20248;-75
2023/12/06 01:03:40;;;;;;;39.30;22.67;;;;;;;;;;5143992;27;20131;-77
2023/12/06 01:06:06;;;;;;;40.53;22.92;;;;;;;;;;5155638;27;20205;-76
2023/12/06 01:08:33;;;;;;;41.35;24.45;;;;;;;;;;5145040;27;20104;-76
2023/12/06 01:10:59;;;;;;;43.33;23.75;;;;;;;;;;5145523;27;20051;-76
2023/12/06 01:13:25;;;;;;;36.85;21.98;;;;;;;;;;5142365;27;20466;-76
2023/12/06 01:15:52;;;;;;;39.85;24.42;;;;;;;;;;5143169;27;20051;-76
2023/12/06 01:18:19;;;;;;;41.50;23.40;;;;;;;;;;5142293;27;20575;-77
2023/12/06 01:20:45;;;;;;;37.58;22.35;;;;;;;;;;5143356;27;20134;-76
2023/12/06 01:23:11;;;;;;;41.00;23.42;;;;;;;;;;5144076;27;20128;-76
2023/12/06 01:25:38;;;;;;;40.33;23.67;;;;;;;;;;5143307;27;20435;-75
2023/12/06 01:28:04;;;;;;;38.33;22.52;;;;;;;;;;5142451;27;20051;-75
2023/12/06 01:30:30;;;;;;;41.83;23.27;;;;;;;;;;5142343;27;20493;-75
2023/12/06 01:32:57;;;;;;;43.40;23.42;;;;;;;;;;5143055;27;20091;-75
2023/12/06 01:35:23;;;;;;;44.35;24.02;;;;;;;;;;5142608;27;20122;-75
2023/12/06 01:37:50;;;;;;;37.65;22.77;;;;;;;;;;5142816;27;20419;-75
2023/12/06 01:40:17;;;;;;;34.05;21.67;;;;;;;;;;5142888;27;20051;-75
2023/12/06 01:42:46;;;;;;;37.63;22.25;;;;;;;;;;5142274;27;20051;-76
2023/12/06 01:45:13;;;;;;;40.20;23.02;;;;;;;;;;5143076;27;20050;-76
2023/12/06 01:47:41;;;;;;;41.45;22.30;;;;;;;;;;5143260;27;20512;-75
2023/12/06 01:50:08;;;;;;;38.47;21.95;;;;;;;;;;5146994;27;20152;-75
2023/12/06 01:52:35;;;;;;;37.45;22.52;;;;;;;;;;5142593;27;20671;-75
2023/12/06 01:55:03;;;;;;;34.92;21.73;;;;;;;;;;5142304;27;20218;-74
2023/12/06 01:57:30;;;;;;;38.42;22.92;;;;;;;;;;5157073;27;20046;-75
2023/12/06 01:59:57;;;;;;;36.95;21.60;;;;;;;;;;5141990;27;20205;-75
2023/12/06 02:02:24;;;;;;;40.45;22.48;;;;;;;;;;5141706;27;20062;-75
2023/12/06 02:04:51;;;;;;;37.15;21.55;;;;;;;;;;5142515;27;20065;-75
2023/12/06 02:07:18;;;;;;;42.40;22.40;;;;;;;;;;5143312;27;20528;-75
2023/12/06 02:09:45;;;;;;;35.15;20.92;;;;;;;;;;5145632;27;20047;-75
2023/12/06 02:12:13;;;;;;;35.22;19.98;;;;;;;;;;5145992;27;20511;-75
2023/12/06 02:14:39;;;;;;;34.83;20.73;;;;;;;;;;5145954;27;20052;-75
2023/12/06 02:17:06;;;;;;;32.53;20.75;;;;;;;;;;5147559;27;20047;-75
2023/12/06 02:19:33;;;;;;;36.42;20.85;;;;;;;;;;5144187;27;20129;-75
2023/12/06 02:22:00;;;;;;;34.47;20.60;;;;;;;;;;5145975;27;20055;-75
2023/12/06 02:24:30;;;;;;;33.60;20.48;;;;;;;;;;5144800;27;20516;-74
2023/12/06 02:26:56;;;;;;;36.50;20.73;;;;;;;;;;5145685;27;20146;-76
2023/12/06 02:29:24;;;;;;;35.17;21.27;;;;;;;;;;5146361;27;20079;-75
2023/12/06 02:31:50;;;;;;;33.80;21.13;;;;;;;;;;5146623;27;20051;-75
2023/12/06 02:34:22;;;;;;;33.85;20.55;;;;;;;;;;5145618;27;20052;-75
2023/12/06 02:36:50;;;;;;;32.55;19.70;;;;;;;;;;5162144;27;20046;-74
2023/12/06 02:39:17;;;;;;;31.08;19.30;;;;;;;;;;5144960;27;20145;-76
2023/12/06 02:41:44;;;;;;;31.55;19.77;;;;;;;;;;5145462;27;20055;-76
2023/12/06 02:44:10;;;;;;;33.40;20.35;;;;;;;;;;5145499;27;20047;-76
2023/12/06 02:46:37;;;;;;;31.45;20.10;;;;;;;;;;5145473;27;20110;-76
2023/12/06 02:49:03;;;;;;;37.10;20.65;;;;;;;;;;5145960;27;20174;-76
2023/12/06 02:51:30;;;;;;;34.65;20.38;;;;;;;;;;5144444;27;20186;-76
2023/12/06 02:53:56;;;;;;;34.10;20.73;;;;;;;;;;5145200;27;20124;-76
2023/12/06 02:56:23;;;;;;;40.67;21.38;;;;;;;;;;5145754;27;20051;-76
2023/12/06 02:58:49;;;;;;;33.92;19.08;;;;;;;;;;5144580;27;20050;-76
2023/12/06 03:01:16;;;;;;;32.25;20.55;;;;;;;;;;5145771;27;20048;-76
2023/12/06 03:03:42;;;;;;;33.75;20.63;;;;;;;;;;5145141;27;20060;-76
2023/12/06 03:06:09;;;;;;;31.63;18.75;;;;;;;;;;5145643;27;20047;-76
2023/12/06 03:08:35;;;;;;;38.00;20.85;;;;;;;;;;5145454;27;20087;-76
2023/12/06 03:11:02;;;;;;;32.13;19.15;;;;;;;;;;5145063;27;20529;-76
2023/12/06 03:13:28;;;;;;;30.73;19.33;;;;;;;;;;5145253;27;20646;-75
2023/12/06 03:15:54;;;;;;;30.02;19.30;;;;;;;;;;5145302;27;20051;-75
2023/12/06 03:18:21;;;;;;;35.70;19.63;;;;;;;;;;5146693;27;20051;-76
2023/12/06 03:20:48;;;;;;;34.38;19.80;;;;;;;;;;5144893;27;20047;-76
2023/12/06 03:23:14;;;;;;;31.65;20.52;;;;;;;;;;5145068;27;20104;-75
2023/12/06 03:25:40;;;;;;;34.08;19.15;;;;;;;;;;5145353;27;20051;-76
2023/12/06 03:28:07;;;;;;;32.22;19.55;;;;;;;;;;5145776;27;20097;-76
2023/12/06 03:30:33;;;;;;;31.25;20.05;;;;;;;;;;5148726;27;20089;-76
2023/12/06 03:33:02;;;;;;;31.90;19.30;;;;;;;;;;5158160;27;20054;-76
2023/12/06 03:35:29;;;;;;;32.22;19.55;;;;;;;;;;5149516;27;20050;-75
2023/12/06 03:37:56;;;;;;;33.72;20.00;;;;;;;;;;5149150;27;20062;-76
2023/12/06 03:40:22;;;;;;;30.15;19.17;;;;;;;;;;5146853;27;20047;-76
2023/12/06 03:42:50;;;;;;;35.63;20.15;;;;;;;;;;5145497;27;20055;-76
2023/12/06 03:45:17;;;;;;;28.90;18.88;;;;;;;;;;5145509;27;20178;-76
2023/12/06 03:47:44;;;;;;;32.70;19.30;;;;;;;;;;5145471;27;20047;-76
2023/12/06 03:50:10;;;;;;;28.13;18.88;;;;;;;;;;5144385;27;20055;-76
2023/12/06 03:52:36;;;;;;;30.58;18.85;;;;;;;;;;5143376;27;20134;-75
2023/12/06 03:55:03;;;;;;;34.20;19.73;;;;;;;;;;5144674;27;20547;-75
2023/12/06 03:57:29;;;;;;;32.28;20.42;;;;;;;;;;5144364;27;20065;-76
2023/12/06 03:59:56;;;;;;;33.95;20.10;;;;;;;;;;5144068;27;20043;-75
2023/12/06 04:02:23;;;;;;;32.28;20.42;;;;;;;;;;5144448;27;20055;-76
2023/12/06 04:04:49;;;;;;;35.13;21.70;;;;;;;;;;5144881;27;20059;-76
2023/12/06 04:07:16;;;;;;;28.50;18.85;;;;;;;;;;5144061;27;20495;-77
2023/12/06 04:09:42;;;;;;;29.88;19.70;;;;;;;;;;5144511;27;20058;-76
2023/12/06 04:12:09;;;;;;;32.58;21.50;;;;;;;;;;5142730;27;20580;-76
2023/12/06 04:14:35;;;;;;;42.05;19.92;;;;;;;;;;5144690;27;20043;-76
2023/12/06 04:17:02;;;;;;;36.58;21.02;;;;;;;;;;5143666;27;20051;-76
2023/12/06 04:19:33;;;;;;;33.55;19.77;;;;;;;;;;5142070;27;20059;-76
2023/12/06 04:21:59;;;;;;;28.52;19.55;;;;;;;;;;5143483;27;20061;-76
2023/12/06 04:24:25;;;;;;;28.60;19.23;;;;;;;;;;5144740;27;20047;-76
2023/12/06 04:26:51;;;;;;;31.83;19.08;;;;;;;;;;5144316;27;20047;-75
2023/12/06 04:29:18;;;;;;;34.40;19.45;;;;;;;;;;5143300;27;20055;-75
2023/12/06 04:31:44;;;;;;;29.13;19.60;;;;;;;;;;5142955;27;20590;-76
2023/12/06 04:34:11;;;;;;;31.20;19.88;;;;;;;;;;5144255;27;20063;-76
2023/12/06 04:36:37;;;;;;;31.25;19.85;;;;;;;;;;5142408;27;20051;-76
2023/12/06 04:39:04;;;;;;;31.02;19.35;;;;;;;;;;5143610;27;20059;-76
2023/12/06 04:41:30;;;;;;;29.27;19.80;;;;;;;;;;5143022;27;20134;-76
2023/12/06 04:43:57;;;;;;;28.17;19.20;;;;;;;;;;5143823;27;20136;-75
2023/12/06 04:46:23;;;;;;;29.90;19.15;;;;;;;;;;5141822;27;20064;-76
2023/12/06 04:48:49;;;;;;;33.05;19.15;;;;;;;;;;5143977;27;20641;-76
2023/12/06 04:51:16;;;;;;;32.63;19.90;;;;;;;;;;5143353;27;20055;-75
2023/12/06 04:53:42;;;;;;;30.38;18.48;;;;;;;;;;5143965;27;20350;-75
2023/12/06 04:56:09;;;;;;;30.70;19.83;;;;;;;;;;5143339;27;20627;-75
2023/12/06 04:58:35;;;;;;;30.10;19.77;;;;;;;;;;5143105;27;20462;-76
2023/12/06 05:01:01;;;;;;;29.50;18.17;;;;;;;;;;5143122;27;20047;-75
2023/12/06 05:03:29;;;;;;;37.25;19.60;;;;;;;;;;5143874;27;20054;-76
2023/12/06 05:05:56;;;;;;;28.85;18.70;;;;;;;;;;5141910;27;20458;-76
2023/12/06 05:08:23;;;;;;;29.90;19.38;;;;;;;;;;5143288;27;20108;-76
2023/12/06 05:10:49;;;;;;;30.05;18.63;;;;;;;;;;5143087;27;20055;-75
2023/12/06 05:13:15;;;;;;;28.80;18.35;;;;;;;;;;5142561;27;20055;-76
2023/12/06 05:15:43;;;;;;;29.38;18.45;;;;;;;;;;5143036;27;20144;-75
2023/12/06 05:18:09;;;;;;;27.42;18.40;;;;;;;;;;5142874;27;20130;-76
2023/12/06 05:20:37;;;;;;;26.65;17.33;;;;;;;;;;5141971;27;20208;-74
2023/12/06 05:23:03;;;;;;;30.73;18.35;;;;;;;;;;5147516;27;20499;-75
2023/12/06 05:25:30;;;;;;;27.05;18.15;;;;;;;;;;5143745;27;20054;-76
2023/12/06 05:27:56;;;;;;;24.67;16.33;;;;;;;;;;5142800;27;20080;-75
2023/12/06 05:30:23;;;;;;;26.75;16.90;;;;;;;;;;5131770;27;20149;-76
2023/12/06 05:32:51;;;;;;;30.38;17.55;;;;;;;;;;5124690;27;20052;-75
2023/12/06 05:35:18;;;;;;;27.27;16.95;;;;;;;;;;5142910;27;20138;-76
2023/12/06 05:37:44;;;;;;;28.52;17.02;;;;;;;;;;5144701;27;20135;-75
2023/12/06 05:40:11;;;;;;;32.58;17.52;;;;;;;;;;5149285;27;20050;-75
2023/12/06 05:42:37;;;;;;;24.98;16.70;;;;;;;;;;5139160;27;20661;-75
2023/12/06 05:45:05;;;;;;;24.23;16.05;;;;;;;;;;5141821;27;20082;-75
2023/12/06 05:47:31;;;;;;;26.30;16.23;;;;;;;;;;5140548;27;20484;-75
2023/12/06 05:49:57;;;;;;;25.80;16.30;;;;;;;;;;5142947;27;20047;-74
2023/12/06 05:52:24;;;;;;;31.13;16.33;;;;;;;;;;5143758;27;20047;-75
2023/12/06 05:54:51;;;;;;;27.17;15.82;;;;;;;;;;5145769;27;20051;-75
2023/12/06 05:57:18;;;;;;;25.02;15.82;;;;;;;;;;5145577;27;20059;-75
2023/12/06 05:59:44;;;;;;;25.02;15.57;;;;;;;;;;5146410;27;20043;-75
2023/12/06 06:02:11;;;;;;;26.30;14.98;;;;;;;;;;5146388;27;20058;-75
2023/12/06 06:04:37;;;;;;;24.25;16.38;;;;;;;;;;5145886;27;20113;-74
2023/12/06 06:07:04;;;;;;;23.80;14.80;;;;;;;;;;5139110;27;20052;-74
2023/12/06 06:09:30;;;;;;;24.13;15.02;;;;;;;;;;5131099;27;20058;-75
2023/12/06 06:11:57;;;;;;;25.55;14.27;;;;;;;;;;5145811;27;20075;-75
2023/12/06 06:14:23;;;;;;;25.67;14.65;;;;;;;;;;5146099;27;20051;-75
2023/12/06 06:16:50;;;;;;;26.10;14.98;;;;;;;;;;5146053;27;20047;-75
2023/12/06 06:19:16;;;;;;;25.77;15.57;;;;;;;;;;5146125;27;20050;-74
2023/12/06 06:21:42;;;;;;;25.67;15.50;;;;;;;;;;5146130;27;20522;-75
2023/12/06 06:24:09;;;;;;;25.60;14.63;;;;;;;;;;5138683;27;20055;-74
2023/12/06 06:26:35;;;;;;;25.23;14.32;;;;;;;;;;5142583;27;20051;-75
2023/12/06 06:29:02;;;;;;;20.17;14.05;;;;;;;;;;5144736;27;20066;-75
2023/12/06 06:31:28;;;;;;;21.67;14.25;;;;;;;;;;5143774;27;20058;-75
2023/12/06 06:33:56;;;;;;;25.40;14.27;;;;;;;;;;5144134;27;20492;-76
2023/12/06 06:36:23;;;;;;;24.70;15.00;;;;;;;;;;5145685;27;20051;-76
2023/12/06 06:38:49;;;;;;;22.88;14.50;;;;;;;;;;5145370;27;20052;-76
2023/12/06 06:41:16;;;;;;;24.42;14.80;;;;;;;;;;5144814;27;20055;-76
2023/12/06 06:43:42;;;;;;;24.65;14.35;;;;;;;;;;5144680;27;20410;-76
2023/12/06 06:46:09;;;;;;;22.98;14.10;;;;;;;;;;5144158;27;20053;-76
2023/12/06 06:48:36;;;;;;;24.65;13.73;;;;;;;;;;5144550;27;20051;-76
2023/12/06 06:51:03;;;;;;;22.25;13.73;;;;;;;;;;5147753;27;20132;-76
2023/12/06 06:53:29;;;;;;;26.52;13.65;;;;;;;;;;5145397;27;20096;-76
2023/12/06 06:55:56;;;;;;;24.60;14.50;;;;;;;;;;5144667;27;20062;-76
2023/12/06 06:58:22;;;;;;;24.25;13.77;;;;;;;;;;5144928;27;20674;-75
2023/12/06 07:00:49;;;;;;;27.45;14.18;;;;;;;;;;5144945;27;20773;-76
2023/12/06 07:03:15;;;;;;;20.83;13.15;;;;;;;;;;5144495;27;20059;-77
2023/12/06 07:05:42;;;;;;;23.33;13.27;;;;;;;;;;5144381;27;20051;-75
2023/12/06 07:08:09;;;;;;;22.00;13.18;;;;;;;;;;5144360;27;20055;-76
2023/12/06 07:10:38;;;;;;;21.42;13.18;;;;;;;;;;5144339;27;20050;-76
2023/12/06 07:13:05;;;;;;;20.38;12.65;;;;;;;;;;5142471;27;20484;-75
2023/12/06 07:15:32;;;;;;;21.10;12.90;;;;;;;;;;5143749;27;20051;-75
2023/12/06 07:17:58;;;;;;;21.75;13.40;;;;;;;;;;5143720;27;20051;-75
2023/12/06 07:20:25;;;;;;;24.48;13.85;;;;;;;;;;5144712;27;20417;-74
2023/12/06 07:23:06;;;;;;;21.58;12.20;;;;;;;;;;5144056;27;20577;-74
2023/12/06 07:25:32;;;;;;;25.23;12.88;;;;;;;;;;5139945;27;20127;-76
2023/12/06 07:27:59;;;;;;;22.38;13.98;;;;;;;;;;5143966;27;20640;-76
2023/12/06 07:30:25;;;;;;;24.75;13.48;;;;;;;;;;5147405;27;20062;-76
2023/12/06 07:32:52;;;;;;;18.88;12.60;;;;;;;;;;5144475;27;20043;-76
2023/12/06 07:35:21;;;;;;;23.08;13.02;;;;;;;;;;5143405;27;20051;-76
2023/12/06 07:37:48;;;;;;;26.70;12.95;;;;;;;;;;5143724;27;20063;-75
2023/12/06 07:40:15;;;;;;;25.67;13.65;;;;;;;;;;5145042;27;20066;-76
2023/12/06 07:42:42;;;;;;;19.95;13.23;;;;;;;;;;5143599;27;20524;-75
2023/12/06 07:45:11;;;;;;;21.30;12.57;;;;;;;;;;5142937;27;20059;-75
2023/12/06 07:47:42;;;;;;;23.20;12.93;;;;;;;;;;5143641;27;20051;-75
2023/12/06 07:50:09;;;;;;;21.08;12.75;;;;;;;;;;5143873;27;20055;-75
2023/12/06 07:52:36;;;;;;;22.45;12.45;;;;;;;;;;5143744;27;20537;-75
2023/12/06 07:55:06;;;;;;;20.17;12.30;;;;;;;;;;5145670;27;20066;-75
2023/12/06 07:57:33;;;;;;;18.30;12.55;;;;;;;;;;5144715;27;21028;-75
2023/12/06 08:00:00;;;;;;;21.83;12.73;;;;;;;;;;5143409;27;20104;-76
2023/12/06 08:02:26;;;;;;;19.35;12.25;;;;;;;;;;5129661;27;20119;-76
2023/12/06 08:04:53;;;;;;;20.92;11.95;;;;;;;;;;5143316;27;20605;-76
2023/12/06 08:07:19;;;;;;;17.75;11.30;;;;;;;;;;5142453;27;20138;-76
2023/12/06 08:09:46;;;;;;;22.02;13.02;;;;;;;;;;5143265;27;20050;-76
2023/12/06 08:12:13;;;;;;;18.17;12.00;;;;;;;;;;5143122;27;20055;-75
2023/12/06 08:14:40;;;;;;;17.60;12.38;;;;;;;;;;5142662;27;20888;-76
2023/12/06 08:17:06;;;;;;;23.48;13.48;;;;;;;;;;5143702;27;20075;-75
2023/12/06 08:19:32;;;;;;;20.75;12.75;;;;;;;;;;5143216;27;20135;-75
2023/12/06 08:21:59;;;;;;;18.75;12.52;;;;;;;;;;5140714;27;20066;-76
2023/12/06 08:24:26;;;;;;;19.27;12.13;;;;;;;;;;5142090;27;20075;-76
2023/12/06 08:26:53;;;;;;;17.73;11.52;;;;;;;;;;5142619;27;20373;-76
2023/12/06 08:29:20;;;;;;;22.15;12.88;;;;;;;;;;5140261;27;20055;-76
2023/12/06 08:31:47;;;;;;;19.58;13.15;;;;;;;;;;5143016;27;20051;-76
2023/12/06 08:34:13;;;;;;;23.05;13.38;;;;;;;;;;5142717;27;20098;-76
2023/12/06 08:36:40;;;;;;;17.70;11.82;;;;;;;;;;5143321;27;20114;-75
2023/12/06 08:39:07;;;;;;;21.58;12.85;;;;;;;;;;5142824;27;20055;-75
2023/12/06 08:41:33;;;;;;;26.15;13.00;;;;;;;;;;5141978;27;20393;-76
2023/12/06 08:44:00;;;;;;;21.20;12.02;;;;;;;;;;5142319;27;20082;-76
2023/12/06 08:46:26;;;;;;;23.67;12.85;;;;;;;;;;5141756;27;20055;-76
2023/12/06 08:48:53;;;;;;;21.85;12.38;;;;;;;;;;5146307;27;20130;-75
2023/12/06 08:51:20;;;;;;;24.88;13.18;;;;;;;;;;5142716;27;20047;-75
2023/12/06 08:53:46;;;;;;;18.45;12.25;;;;;;;;;;5142442;27;20055;-75
2023/12/06 08:56:13;;;;;;;17.88;11.90;;;;;;;;;;5142608;27;20047;-75
2023/12/06 08:58:40;;;;;;;21.52;13.40;;;;;;;;;;5142860;27;20381;-74
2023/12/06 09:01:06;;;;;;;19.27;11.68;;;;;;;;;;5141350;27;20055;-75
2023/12/06 09:03:33;;;;;;;20.83;11.90;;;;;;;;;;5141097;27;20047;-75
2023/12/06 09:05:59;;;;;;;20.15;12.35;;;;;;;;;;5144008;27;20132;-75
2023/12/06 09:08:29;;;;;;;19.27;11.75;;;;;;;;;;5142997;27;20051;-75
2023/12/06 09:10:55;;;;;;;25.95;13.07;;;;;;;;;;5142134;27;20052;-75
2023/12/06 09:13:21;;;;;;;23.70;11.93;;;;;;;;;;5142312;27;20055;-75
2023/12/06 09:15:48;;;;;;;17.50;11.13;;;;;;;;;;5141993;27;20042;-75
2023/12/06 09:18:15;;;;;;;19.35;11.65;;;;;;;;;;5139382;27;20051;-75
2023/12/06 09:20:42;;;;;;;17.73;11.55;;;;;;;;;;5140126;27;20097;-75
2023/12/06 09:23:09;;;;;;;22.85;12.70;;;;;;;;;;5141817;27;20116;-75
2023/12/06 09:25:36;;;;;;;20.77;11.48;;;;;;;;;;5140144;27;20526;-74
2023/12/06 09:28:04;;;;;;;18.63;11.15;;;;;;;;;;5142654;27;20047;-75
2023/12/06 09:30:31;;;;;;;16.42;11.65;;;;;;;;;;5142258;27;20048;-75
2023/12/06 09:32:57;;;;;;;19.13;11.02;;;;;;;;;;5142206;27;20123;-75
2023/12/06 09:35:23;;;;;;;18.38;12.13;;;;;;;;;;5139286;27;20051;-75
2023/12/06 09:37:50;;;;;;;18.58;11.68;;;;;;;;;;5141663;27;20051;-75
2023/12/06 09:40:16;;;;;;;18.52;11.50;;;;;;;;;;5141139;27;20055;-75
2023/12/06 09:42:46;;;;;;;18.05;11.30;;;;;;;;;;5142428;27;20238;-75
2023/12/06 09:45:13;;;;;;;20.85;12.68;;;;;;;;;;5142956;27;20213;-75
2023/12/06 09:47:42;;;;;;;20.45;12.23;;;;;;;;;;5143216;27;20051;-75
2023/12/06 09:50:12;;;;;;;22.52;11.95;;;;;;;;;;5142821;27;20071;-75
2023/12/06 09:52:39;;;;;;;16.38;10.75;;;;;;;;;;5135636;27;20040;-75
2023/12/06 09:55:05;;;;;;;21.48;12.32;;;;;;;;;;5142349;27;20531;-75
2023/12/06 09:57:32;;;;;;;18.45;11.43;;;;;;;;;;5143367;27;20051;-75
2023/12/06 09:59:58;;;;;;;19.70;11.40;;;;;;;;;;5142565;27;20542;-75
2023/12/06 10:02:24;;;;;;;18.38;11.65;;;;;;;;;;5144319;27;20078;-76
2023/12/06 10:04:53;;;;;;;17.63;11.30;;;;;;;;;;5143374;27;20051;-75
2023/12/06 10:07:20;;;;;;;19.33;11.18;;;;;;;;;;5144766;27;20051;-75
2023/12/06 10:09:50;;;;;;;16.90;10.43;;;;;;;;;;5140716;27;20180;-75
2023/12/06 10:12:17;;;;;;;14.10;10.73;;;;;;;;;;5141641;27;20082;-75
2023/12/06 10:14:43;;;;;;;16.75;10.57;;;;;;;;;;5141285;27;20059;-75
2023/12/06 10:17:10;;;;;;;15.80;9.80;;;;;;;;;;5142478;27;20428;-76
2023/12/06 10:19:37;;;;;;;15.73;9.52;;;;;;;;;;5139544;27;20356;-75
2023/12/06 10:22:04;;;;;;;17.98;10.18;;;;;;;;;;5138934;27;20104;-75
2023/12/06 10:24:30;;;;;;;16.42;8.98;;;;;;;;;;5137109;27;20074;-76
2023/12/06 10:27:11;;;;;;;17.75;9.55;;;;;;;;;;5132287;27;20429;-76
2023/12/06 10:29:38;;;;;;;13.45;9.18;;;;;;;;;;5141306;27;20134;-75
2023/12/06 10:32:06;;;;;;;15.70;9.20;;;;;;;;;;5145296;27;20047;-76
2023/12/06 10:34:33;;;;;;;16.80;9.32;;;;;;;;;;5141618;27;20108;-76
2023/12/06 10:37:01;;;;;;;20.98;10.63;;;;;;;;;;5145364;27;20055;-76
2023/12/06 10:39:28;;;;;;;21.17;10.65;;;;;;;;;;5143875;27;20077;-76
2023/12/06 10:41:55;;;;;;;15.43;10.48;;;;;;;;;;5144512;27;20127;-75
2023/12/06 10:44:21;;;;;;;16.27;9.85;;;;;;;;;;5142020;27;20460;-76
2023/12/06 10:46:48;;;;;;;17.27;10.20;;;;;;;;;;5145301;27;20047;-76
2023/12/06 10:49:27;;;;;;;13.38;9.75;;;;;;;;;;5145582;27;20054;-76
2023/12/06 10:51:54;;;;;;;14.43;9.82;;;;;;;;;;5144348;27;20074;-76
2023/12/06 10:54:20;;;;;;;18.83;10.98;;;;;;;;;;5145966;27;20055;-76
2023/12/06 10:56:47;;;;;;;19.35;10.55;;;;;;;;;;5146080;27;20051;-76
2023/12/06 10:59:14;;;;;;;20.58;11.43;;;;;;;;;;5145451;27;20521;-76
2023/12/06 11:01:41;;;;;;;20.13;12.50;;;;;;;;;;5143534;27;20062;-75
2023/12/06 11:04:09;;;;;;;18.20;12.07;;;;;;;;;;5142664;27;20051;-75
2023/12/06 11:06:43;;;;;;;18.23;10.93;;;;;;;;;;5139316;27;20719;-75
2023/12/06 11:09:22;;;;;;;15.87;10.70;;;;;;;;;;5144813;27;20520;-75
2023/12/06 11:12:06;;;;;;;19.40;11.73;;;;;;;;;;5144652;27;20051;-75
2023/12/06 11:14:32;;;;;;;16.58;10.30;;;;;;;;;;5141676;27;20308;-75
2023/12/06 11:17:18;;;;;;;15.18;10.00;;;;;;;;;;5143621;27;20108;-75
2023/12/06 11:19:44;;;;;;;17.95;10.85;;;;;;;;;;5144238;27;20050;-75
2023/12/06 11:22:12;;;;;;;19.70;12.30;;;;;;;;;;5144674;27;20058;-75
2023/12/06 11:24:38;;;;;;;17.02;11.43;;;;;;;;;;5132069;27;20052;-75
2023/12/06 11:27:07;;;;;;;17.52;11.02;;;;;;;;;;5142162;27;20535;-75
2023/12/06 11:29:33;;;;;;;17.20;9.55;;;;;;;;;;5143564;27;20062;-75
2023/12/06 11:32:00;;;;;;;21.83;12.05;;;;;;;;;;5145049;27;20176;-75
2023/12/06 11:34:34;;;;;;;15.57;10.65;;;;;;;;;;5143545;27;20051;-74
2023/12/06 11:37:03;;;;;;;19.13;12.25;;;;;;;;;;5143370;27;20083;-74
2023/12/06 11:39:30;;;;;;;16.75;11.20;;;;;;;;;;5143673;27;20155;-75
2023/12/06 11:41:58;;;;;;;17.77;10.63;;;;;;;;;;5144470;27;20104;-75
2023/12/06 11:44:25;;;;;;;15.50;10.20;;;;;;;;;;5143490;27;20124;-74
2023/12/06 11:46:53;;;;;;;16.55;10.82;;;;;;;;;;5144489;27;20043;-74
2023/12/06 11:49:23;;;;;;;22.02;11.50;;;;;;;;;;5143910;27;20055;-74
2023/12/06 11:52:02;;;;;;;18.13;10.13;;;;;;;;;;5137895;27;20135;-74
2023/12/06 11:54:29;;;;;;;17.23;10.57;;;;;;;;;;5138111;27;20055;-74
2023/12/06 11:57:06;;;;;;;17.20;10.18;;;;;;;;;;5143105;27;20047;-74
2023/12/06 11:59:33;;;;;;;16.60;9.52;;;;;;;;;;5143606;27;20051;-74
2023/12/06 12:01:59;;;;;;;19.15;10.98;;;;;;;;;;5143904;27;20055;-75
2023/12/06 12:04:26;;;;;;;19.23;10.45;;;;;;;;;;5144008;27;20058;-74
2023/12/06 12:06:53;;;;;;;17.17;10.05;;;;;;;;;;5144734;27;20384;-75
2023/12/06 12:09:24;;;;;;;15.73;10.70;;;;;;;;;;5137732;27;20051;-74
2023/12/06 12:11:52;;;;;;;17.15;10.07;;;;;;;;;;5143625;27;20051;-74
2023/12/06 12:14:18;;;;;;;17.73;10.18;;;;;;;;;;5143858;27;20062;-74
2023/12/06 12:16:45;;;;;;;16.63;9.85;;;;;;;;;;5143548;27;20059;-74
2023/12/06 12:19:11;;;;;;;20.42;9.93;;;;;;;;;;5142858;27;20407;-75
2023/12/06 12:21:38;;;;;;;17.25;10.48;;;;;;;;;;5142603;27;20112;-74
2023/12/06 12:24:08;;;;;;;16.15;9.70;;;;;;;;;;5144405;27;20057;-74
2023/12/06 12:26:34;;;;;;;15.43;9.20;;;;;;;;;;5142664;27;20135;-75
2023/12/06 12:29:00;;;;;;;13.98;9.20;;;;;;;;;;5143237;27;20074;-75
2023/12/06 12:31:28;;;;;;;14.55;9.90;;;;;;;;;;5142304;27;20043;-75
2023/12/06 12:33:55;;;;;;;16.98;9.63;;;;;;;;;;5143209;27;20167;-75
2023/12/06 12:36:23;;;;;;;19.95;10.52;;;;;;;;;;5143786;27;20093;-75
2023/12/06 12:38:55;;;;;;;14.10;8.57;;;;;;;;;;5144640;27;20048;-75
2023/12/06 12:41:21;;;;;;;9.27;6.50;;;;;;;;;;5143014;27;20055;-75
2023/12/06 12:43:48;;;;;;;10.23;6.32;;;;;;;;;;5137353;27;20054;-75
2023/12/06 12:46:16;;;;;;;9.45;5.60;;;;;;;;;;5137732;27;20504;-75
2023/12/06 12:48:42;;;;;;;10.65;5.07;;;;;;;;;;5140411;27;20362;-75
2023/12/06 12:51:15;;;;;;;9.27;5.07;;;;;;;;;;5128163;27;20203;-74
2023/12/06 12:53:42;;;;;;;5.93;3.78;;;;;;;;;;5155693;27;20055;-75
2023/12/06 12:56:10;;;;;;;7.45;4.32;;;;;;;;;;5141531;27;20139;-75
2023/12/06 12:58:37;;;;;;;7.50;4.30;;;;;;;;;;5142761;27;20055;-75
2023/12/06 13:01:03;;;;;;;6.90;4.57;;;;;;;;;;5142687;27;20047;-74
2023/12/06 13:03:32;;;;;;;6.28;4.75;;;;;;;;;;5142850;27;20059;-74
2023/12/06 13:06:01;;;;;;;8.77;5.30;;;;;;;;;;5141214;27;20047;-75
2023/12/06 13:08:29;;;;;;;9.32;4.75;;;;;;;;;;5144573;27;20086;-75
2023/12/06 13:10:55;;;;;;;6.88;4.25;;;;;;;;;;5145190;27;20108;-74
2023/12/06 13:13:22;;;;;;;7.55;4.93;;;;;;;;;;5157594;27;20114;-75
2023/12/06 13:15:53;;;;;;;7.82;4.82;;;;;;;;;;5142405;27;20051;-75
2023/12/06 13:18:19;;;;;;;9.82;4.93;;;;;;;;;;5142797;27;20062;-74
2023/12/06 13:20:46;;;;;;;7.93;4.93;;;;;;;;;;5142028;27;20055;-74
2023/12/06 13:23:13;;;;;;;10.27;4.95;;;;;;;;;;5142962;27;20059;-74
2023/12/06 13:25:40;;;;;;;5.43;4.20;;;;;;;;;;5142246;27;20055;-75
2023/12/06 13:28:06;;;;;;;6.55;3.83;;;;;;;;;;5135054;27;20104;-75
2023/12/06 13:30:32;;;;;;;5.05;3.47;;;;;;;;;;5140890;27;20050;-77
2023/12/06 13:32:59;;;;;;;7.10;4.32;;;;;;;;;;5142633;27;20047;-74
2023/12/06 13:35:26;;;;;;;8.50;3.70;;;;;;;;;;5143509;27;20134;-74
2023/12/06 13:37:57;;;;;;;5.97;3.88;;;;;;;;;;5141289;27;20047;-74
2023/12/06 13:40:25;;;;;;;9.80;3.72;;;;;;;;;;5141819;27;20474;-74
2023/12/06 13:42:53;;;;;;;8.23;3.95;;;;;;;;;;5140441;27;20057;-74
2023/12/06 13:45:19;;;;;;;5.65;4.03;;;;;;;;;;5142023;27;20118;-74
2023/12/06 13:47:46;;;;;;;7.30;4.43;;;;;;;;;;5140537;27;20427;-74
2023/12/06 13:50:12;;;;;;;4.75;3.80;;;;;;;;;;5141772;27;20093;-74
2023/12/06 13:52:39;;;;;;;9.38;4.78;;;;;;;;;;5141690;27;20138;-74
2023/12/06 13:55:08;;;;;;;8.02;5.07;;;;;;;;;;5140483;27;20462;-74
2023/12/06 13:57:34;;;;;;;8.82;4.38;;;;;;;;;;5139682;27;20051;-74
2023/12/06 14:00:05;;;;;;;5.28;4.78;;;;;;;;;;5141723;27;20522;-74
2023/12/06 14:02:32;;;;;;;6.97;4.78;;;;;;;;;;5141574;27;20085;-74
2023/12/06 14:04:59;;;;;;;6.63;4.30;;;;;;;;;;5144005;27;20648;-74
2023/12/06 14:07:26;;;;;;;9.68;4.65;;;;;;;;;;5144626;27;20051;-74
2023/12/06 14:09:53;;;;;;;7.53;4.10;;;;;;;;;;5148229;27;20048;-74
2023/12/06 14:12:19;;;;;;;6.22;4.20;;;;;;;;;;5146796;27;20138;-74
2023/12/06 14:14:47;;;;;;;8.20;4.68;;;;;;;;;;5145422;27;20082;-72
2023/12/06 14:17:14;;;;;;;7.47;4.72;;;;;;;;;;5145288;27;20408;-75
2023/12/06 14:19:41;;;;;;;7.82;4.80;;;;;;;;;;5144349;27;20039;-75